Time;durP1;ratioP1;P1;durP2;ratioP2;P2;SDS_P1;SDS_P2;PMS_P1;PMS_P2;Temp;Humidity;BMP_temperature;BMP_pressure;BME280_temperature;BME280_humidity;BME280_pressure;Samples;Min_cycle;Max_cycle;Signal;HPM_P1;HPM_P2
2021/06/20 00:01:53;;;;;;;13.67;12.60;;;;;;;;;;5033269;28;20248;-60
2021/06/20 00:04:19;;;;;;;13.60;12.40;;;;;;;;;;5033660;28;20468;-60
2021/06/20 00:06:49;;;;;;;13.10;11.90;;;;;;;;;;5033415;28;20327;-61
2021/06/20 00:09:14;;;;;;;12.70;11.80;;;;;;;;;;5033668;28;20226;-61
2021/06/20 00:11:43;;;;;;;14.40;12.33;;;;;;;;;;5033404;28;20481;-59
2021/06/20 00:14:08;;;;;;;14.10;12.90;;;;;;;;;;5033235;28;20217;-59
2021/06/20 00:16:35;;;;;;;13.47;12.20;;;;;;;;;;5034919;28;20448;-60
2021/06/20 00:19:00;;;;;;;14.13;12.90;;;;;;;;;;5037029;28;20240;-60
2021/06/20 00:21:27;;;;;;;14.50;13.30;;;;;;;;;;5037223;28;20460;-60
2021/06/20 00:23:53;;;;;;;14.60;13.10;;;;;;;;;;5036747;28;20249;-60
2021/06/20 00:26:18;;;;;;;13.30;12.30;;;;;;;;;;5037327;28;20460;-60
2021/06/20 00:28:43;;;;;;;13.00;11.77;;;;;;;;;;5037237;28;20267;-60
2021/06/20 00:31:09;;;;;;;14.33;13.03;;;;;;;;;;5036595;28;20304;-60
2021/06/20 00:33:34;;;;;;;12.70;11.60;;;;;;;;;;5037148;28;20222;-60
2021/06/20 00:36:00;;;;;;;13.17;12.13;;;;;;;;;;5036790;28;20225;-59
2021/06/20 00:38:26;;;;;;;14.83;13.40;;;;;;;;;;5036832;28;20627;-60
2021/06/20 00:40:51;;;;;;;13.17;12.10;;;;;;;;;;5036270;28;20313;-60
2021/06/20 00:43:16;;;;;;;13.33;12.33;;;;;;;;;;5036736;28;20233;-59
2021/06/20 00:45:42;;;;;;;13.83;12.57;;;;;;;;;;5036759;28;20261;-60
2021/06/20 00:48:08;;;;;;;14.77;13.30;;;;;;;;;;5036290;28;20296;-60
2021/06/20 00:50:34;;;;;;;12.60;11.70;;;;;;;;;;5036646;28;20221;-60
2021/06/20 00:53:00;;;;;;;15.27;13.87;;;;;;;;;;5036497;28;20920;-60
2021/06/20 00:55:30;;;;;;;13.60;12.30;;;;;;;;;;5036941;28;20234;-59
2021/06/20 00:57:57;;;;;;;14.57;13.17;;;;;;;;;;5036399;28;20463;-60
2021/06/20 01:00:23;;;;;;;13.87;12.70;;;;;;;;;;5036620;28;20468;-61
2021/06/20 01:02:48;;;;;;;14.73;13.43;;;;;;;;;;5036409;28;20460;-61
2021/06/20 01:05:13;;;;;;;14.87;13.50;;;;;;;;;;5036324;28;20304;-60
2021/06/20 01:07:39;;;;;;;15.33;13.37;;;;;;;;;;5035288;28;20214;-60
2021/06/20 01:10:08;;;;;;;15.03;13.77;;;;;;;;;;5035853;28;20283;-60
2021/06/20 01:12:34;;;;;;;14.83;13.63;;;;;;;;;;5036457;28;20284;-59
2021/06/20 01:14:59;;;;;;;13.87;12.77;;;;;;;;;;5036068;28;20841;-60
2021/06/20 01:17:25;;;;;;;13.67;12.37;;;;;;;;;;5035206;28;20229;-60
2021/06/20 01:19:50;;;;;;;14.10;13.00;;;;;;;;;;5035816;28;20210;-60
2021/06/20 01:22:30;;;;;;;14.23;13.03;;;;;;;;;;5036217;28;20230;-60
2021/06/20 01:25:00;;;;;;;14.37;13.20;;;;;;;;;;5035856;28;20221;-61
2021/06/20 01:27:36;;;;;;;14.50;13.20;;;;;;;;;;5035869;28;20448;-61
2021/06/20 01:30:03;;;;;;;14.57;13.30;;;;;;;;;;5035460;28;20527;-61
2021/06/20 01:32:30;;;;;;;16.53;14.87;;;;;;;;;;5036170;28;20526;-60
2021/06/20 01:34:55;;;;;;;14.60;13.43;;;;;;;;;;5035602;28;20455;-60
2021/06/20 01:37:20;;;;;;;14.23;13.07;;;;;;;;;;5035912;28;20461;-60
2021/06/20 01:39:46;;;;;;;14.63;13.43;;;;;;;;;;5035750;28;20228;-60
2021/06/20 01:42:14;;;;;;;14.20;13.00;;;;;;;;;;5034213;28;20352;-60
2021/06/20 01:44:52;;;;;;;14.13;12.97;;;;;;;;;;5035781;28;20491;-60
2021/06/20 01:47:18;;;;;;;14.33;13.13;;;;;;;;;;5035410;28;20582;-61
2021/06/20 01:49:44;;;;;;;15.70;14.30;;;;;;;;;;5035621;28;20515;-60
2021/06/20 01:52:10;;;;;;;15.03;13.83;;;;;;;;;;5034901;28;20233;-59
2021/06/20 01:54:37;;;;;;;16.63;15.23;;;;;;;;;;5035551;28;20440;-60
2021/06/20 01:57:05;;;;;;;15.20;13.97;;;;;;;;;;5035253;28;20224;-60
2021/06/20 01:59:31;;;;;;;16.00;14.40;;;;;;;;;;5035660;28;20542;-60
2021/06/20 02:01:56;;;;;;;15.23;14.03;;;;;;;;;;5034945;28;20460;-60
2021/06/20 02:04:21;;;;;;;15.47;13.90;;;;;;;;;;5034052;28;20233;-60
2021/06/20 02:06:47;;;;;;;16.63;15.13;;;;;;;;;;5035136;28;20210;-60
2021/06/20 02:09:13;;;;;;;16.40;15.00;;;;;;;;;;5034777;28;20676;-60
2021/06/20 02:11:38;;;;;;;16.40;14.53;;;;;;;;;;5035214;28;20516;-60
2021/06/20 02:14:03;;;;;;;17.87;16.47;;;;;;;;;;5035048;28;20467;-59
2021/06/20 02:16:29;;;;;;;16.97;15.53;;;;;;;;;;5035330;28;20216;-61
2021/06/20 02:18:54;;;;;;;17.63;16.03;;;;;;;;;;5035180;28;20646;-60
2021/06/20 02:21:19;;;;;;;15.70;14.60;;;;;;;;;;5034502;28;20308;-60
2021/06/20 02:23:44;;;;;;;17.30;16.00;;;;;;;;;;5034892;28;20565;-61
2021/06/20 02:26:10;;;;;;;16.33;14.90;;;;;;;;;;5034432;28;20260;-60
2021/06/20 02:28:35;;;;;;;15.57;14.37;;;;;;;;;;5034877;28;20625;-60
2021/06/20 02:31:00;;;;;;;16.60;15.27;;;;;;;;;;5034210;28;20226;-60
2021/06/20 02:33:25;;;;;;;18.57;16.90;;;;;;;;;;5034742;28;20309;-60
2021/06/20 02:35:51;;;;;;;16.07;14.57;;;;;;;;;;5033609;28;20218;-60
2021/06/20 02:38:16;;;;;;;17.67;16.10;;;;;;;;;;5034143;28;20738;-61
2021/06/20 02:40:41;;;;;;;17.13;15.63;;;;;;;;;;5033787;28;20221;-60
2021/06/20 02:43:06;;;;;;;16.00;14.73;;;;;;;;;;5034001;28;20708;-60
2021/06/20 02:45:32;;;;;;;15.70;14.40;;;;;;;;;;5034697;28;20221;-60
2021/06/20 02:47:57;;;;;;;19.60;17.73;;;;;;;;;;5034128;28;20225;-60
2021/06/20 02:50:22;;;;;;;16.40;15.17;;;;;;;;;;5034529;28;20241;-60
2021/06/20 02:52:48;;;;;;;16.00;14.90;;;;;;;;;;5034131;28;20228;-60
2021/06/20 02:55:13;;;;;;;16.80;15.40;;;;;;;;;;5033989;28;20665;-60
2021/06/20 02:57:39;;;;;;;17.50;16.10;;;;;;;;;;5034289;28;20576;-60
2021/06/20 03:00:05;;;;;;;16.07;14.97;;;;;;;;;;5033947;28;20228;-60
2021/06/20 03:02:31;;;;;;;16.67;15.23;;;;;;;;;;5034614;28;20647;-60
2021/06/20 03:04:57;;;;;;;16.40;15.20;;;;;;;;;;5034372;28;20619;-59
2021/06/20 03:07:22;;;;;;;18.23;16.73;;;;;;;;;;5034099;28;20407;-59
2021/06/20 03:09:48;;;;;;;18.23;16.77;;;;;;;;;;5034154;28;20982;-60
2021/06/20 03:12:13;;;;;;;17.13;15.83;;;;;;;;;;5033985;28;20228;-60
2021/06/20 03:14:40;;;;;;;16.83;15.60;;;;;;;;;;5034217;28;20218;-60
2021/06/20 03:17:06;;;;;;;15.50;14.40;;;;;;;;;;5033689;28;20235;-61
2021/06/20 03:19:33;;;;;;;16.53;14.93;;;;;;;;;;5033090;28;20846;-60
2021/06/20 03:22:00;;;;;;;19.00;17.33;;;;;;;;;;5033929;28;20467;-63
2021/06/20 03:24:30;;;;;;;18.80;17.03;;;;;;;;;;5032291;28;20834;-64
2021/06/20 03:26:56;;;;;;;17.57;16.17;;;;;;;;;;5051302;28;20478;-64
2021/06/20 03:29:22;;;;;;;17.80;16.50;;;;;;;;;;5045438;28;20471;-63
2021/06/20 03:31:48;;;;;;;18.60;16.80;;;;;;;;;;5065392;28;20452;-63
2021/06/20 03:34:13;;;;;;;18.20;16.80;;;;;;;;;;5052464;28;20562;-63
2021/06/20 03:36:39;;;;;;;19.47;17.70;;;;;;;;;;5067305;28;20463;-62
2021/06/20 03:39:04;;;;;;;18.20;16.70;;;;;;;;;;5064285;28;20231;-63
2021/06/20 03:41:30;;;;;;;20.17;18.60;;;;;;;;;;5057748;28;20228;-65
2021/06/20 03:43:55;;;;;;;21.27;19.60;;;;;;;;;;5064806;28;20266;-63
2021/06/20 03:46:21;;;;;;;18.90;17.20;;;;;;;;;;5059594;28;20283;-64
2021/06/20 03:48:46;;;;;;;20.43;18.50;;;;;;;;;;5062631;28;20217;-64
2021/06/20 03:51:13;;;;;;;20.03;18.37;;;;;;;;;;5067229;28;20486;-64
2021/06/20 03:53:39;;;;;;;19.60;18.10;;;;;;;;;;5068580;28;20231;-64
2021/06/20 03:56:04;;;;;;;20.03;18.10;;;;;;;;;;5063574;28;20451;-65
2021/06/20 03:58:29;;;;;;;19.80;18.07;;;;;;;;;;5065116;28;20471;-65
2021/06/20 04:00:55;;;;;;;19.90;18.30;;;;;;;;;;5058853;28;20224;-64
2021/06/20 04:03:20;;;;;;;20.90;19.30;;;;;;;;;;5066244;28;20294;-63
2021/06/20 04:05:45;;;;;;;18.53;16.90;;;;;;;;;;5070627;28;20233;-62
2021/06/20 04:08:10;;;;;;;18.87;17.17;;;;;;;;;;5067266;28;20555;-63
2021/06/20 04:10:36;;;;;;;20.13;18.10;;;;;;;;;;5063646;28;20353;-64
2021/06/20 04:13:02;;;;;;;20.73;19.03;;;;;;;;;;5066248;28;20656;-63
2021/06/20 04:15:27;;;;;;;20.77;18.83;;;;;;;;;;5070321;28;20228;-64
2021/06/20 04:17:53;;;;;;;19.30;17.80;;;;;;;;;;5067101;28;20830;-64
2021/06/20 04:20:19;;;;;;;19.83;18.30;;;;;;;;;;5062077;28;20220;-64
2021/06/20 04:22:44;;;;;;;20.10;18.70;;;;;;;;;;5066013;28;20521;-64
2021/06/20 04:25:15;;;;;;;20.17;18.37;;;;;;;;;;5060586;28;20556;-65
2021/06/20 04:27:41;;;;;;;19.47;18.07;;;;;;;;;;5070010;28;20631;-64
2021/06/20 04:30:10;;;;;;;18.57;17.07;;;;;;;;;;5063511;28;20599;-65
2021/06/20 04:32:35;;;;;;;19.83;18.13;;;;;;;;;;5062233;28;20455;-65
2021/06/20 04:35:00;;;;;;;19.20;17.80;;;;;;;;;;5063914;28;20484;-64
2021/06/20 04:37:25;;;;;;;18.80;17.50;;;;;;;;;;5061941;28;20305;-64
2021/06/20 04:39:51;;;;;;;19.70;18.03;;;;;;;;;;5063017;28;20569;-62
2021/06/20 04:42:17;;;;;;;19.17;17.63;;;;;;;;;;5062836;28;20312;-63
2021/06/20 04:44:44;;;;;;;18.53;17.30;;;;;;;;;;5069860;28;20236;-63
2021/06/20 04:47:15;;;;;;;20.50;18.90;;;;;;;;;;5068680;28;20467;-63
2021/06/20 04:49:40;;;;;;;19.10;17.70;;;;;;;;;;5062634;28;20475;-63
2021/06/20 04:52:07;;;;;;;18.93;17.50;;;;;;;;;;5062378;28;20550;-63
2021/06/20 04:54:35;;;;;;;20.20;17.97;;;;;;;;;;5048165;28;20849;-62
2021/06/20 04:57:02;;;;;;;19.27;17.93;;;;;;;;;;5063189;28;20524;-63
2021/06/20 04:59:27;;;;;;;19.97;18.40;;;;;;;;;;5050074;28;20470;-64
2021/06/20 05:01:52;;;;;;;20.33;18.73;;;;;;;;;;5063004;28;20596;-63
2021/06/20 05:04:18;;;;;;;20.03;18.63;;;;;;;;;;5067998;28;20708;-64
2021/06/20 05:06:43;;;;;;;20.83;19.30;;;;;;;;;;5069122;28;20353;-63
2021/06/20 05:09:08;;;;;;;20.77;19.07;;;;;;;;;;5062395;28;20639;-65
2021/06/20 05:11:33;;;;;;;23.23;21.33;;;;;;;;;;5063355;28;20231;-63
2021/06/20 05:13:59;;;;;;;21.63;19.73;;;;;;;;;;5069300;28;20225;-64
2021/06/20 05:16:24;;;;;;;22.33;20.63;;;;;;;;;;5068463;28;20275;-63
2021/06/20 05:18:50;;;;;;;21.77;19.97;;;;;;;;;;5062302;28;20212;-63
2021/06/20 05:21:15;;;;;;;21.50;19.87;;;;;;;;;;5063002;28;20235;-63
2021/06/20 05:23:41;;;;;;;23.30;21.43;;;;;;;;;;5069383;28;20221;-64
2021/06/20 05:26:06;;;;;;;22.87;21.27;;;;;;;;;;5059972;28;20237;-64
2021/06/20 05:28:31;;;;;;;24.73;22.97;;;;;;;;;;5056801;28;20596;-63
2021/06/20 05:30:57;;;;;;;23.40;21.60;;;;;;;;;;5062196;28;20273;-63
2021/06/20 05:33:22;;;;;;;22.43;20.90;;;;;;;;;;5063817;28;20217;-64
2021/06/20 05:35:47;;;;;;;23.87;22.17;;;;;;;;;;5069126;28;20225;-65
2021/06/20 05:38:13;;;;;;;22.23;20.63;;;;;;;;;;5065520;28;20228;-64
2021/06/20 05:40:39;;;;;;;22.53;20.93;;;;;;;;;;5061682;28;20220;-64
2021/06/20 05:43:05;;;;;;;21.70;20.30;;;;;;;;;;5065700;28;20995;-63
2021/06/20 05:45:31;;;;;;;23.43;21.70;;;;;;;;;;5068651;28;20468;-63
2021/06/20 05:47:57;;;;;;;23.10;21.37;;;;;;;;;;5065141;28;20216;-64
2021/06/20 05:50:22;;;;;;;22.60;20.90;;;;;;;;;;5061286;28;20467;-63
2021/06/20 05:52:48;;;;;;;23.73;21.67;;;;;;;;;;5064665;28;20217;-64
2021/06/20 05:55:13;;;;;;;21.90;20.40;;;;;;;;;;5068076;28;20290;-63
2021/06/20 05:57:39;;;;;;;23.53;21.63;;;;;;;;;;5064661;28;20220;-63
2021/06/20 06:00:07;;;;;;;22.00;20.40;;;;;;;;;;5061611;28;20233;-65
2021/06/20 06:02:32;;;;;;;22.73;21.13;;;;;;;;;;5065607;28;20315;-64
2021/06/20 06:04:57;;;;;;;21.10;19.70;;;;;;;;;;5068256;28;20481;-63
2021/06/20 06:07:23;;;;;;;23.50;21.80;;;;;;;;;;5063258;28;20235;-64
2021/06/20 06:09:48;;;;;;;22.70;21.10;;;;;;;;;;5061658;28;20245;-59
2021/06/20 06:12:13;;;;;;;24.03;22.00;;;;;;;;;;5066164;28;20248;-59
2021/06/20 06:14:38;;;;;;;21.80;20.23;;;;;;;;;;5068254;28;20239;-60
2021/06/20 06:17:04;;;;;;;24.53;22.77;;;;;;;;;;5063094;28;20548;-60
2021/06/20 06:19:29;;;;;;;23.07;21.03;;;;;;;;;;5060996;28;20282;-60
2021/06/20 06:21:54;;;;;;;24.70;22.70;;;;;;;;;;5066532;28;20249;-60
2021/06/20 06:24:19;;;;;;;22.20;20.60;;;;;;;;;;5067451;28;20231;-59
2021/06/20 06:26:45;;;;;;;21.93;20.33;;;;;;;;;;5054661;28;20680;-59
2021/06/20 06:29:10;;;;;;;21.93;20.30;;;;;;;;;;5067798;28;20228;-59
2021/06/20 06:31:36;;;;;;;22.27;20.57;;;;;;;;;;5063460;28;20643;-59
2021/06/20 06:34:02;;;;;;;22.50;20.90;;;;;;;;;;5050049;28;20219;-60
2021/06/20 06:36:28;;;;;;;23.77;22.07;;;;;;;;;;5064956;28;20483;-59
2021/06/20 06:38:53;;;;;;;21.83;20.20;;;;;;;;;;5067743;28;20455;-59
2021/06/20 06:41:19;;;;;;;21.33;19.73;;;;;;;;;;5062053;28;20244;-59
2021/06/20 06:43:47;;;;;;;22.07;20.50;;;;;;;;;;5060910;28;20307;-60
2021/06/20 06:46:13;;;;;;;20.43;19.10;;;;;;;;;;5065577;28;20302;-60
2021/06/20 06:48:38;;;;;;;24.30;22.70;;;;;;;;;;5067239;28;20462;-60
2021/06/20 06:51:04;;;;;;;21.73;20.27;;;;;;;;;;5062353;28;20231;-60
2021/06/20 06:53:29;;;;;;;22.10;20.60;;;;;;;;;;5060187;28;20220;-59
2021/06/20 06:55:55;;;;;;;23.90;22.10;;;;;;;;;;5065982;28;20490;-60
2021/06/20 06:58:20;;;;;;;23.33;21.50;;;;;;;;;;5066790;28;20232;-59
2021/06/20 07:00:46;;;;;;;23.80;22.10;;;;;;;;;;5062249;28;20224;-60
2021/06/20 07:03:11;;;;;;;22.90;21.40;;;;;;;;;;5060693;28;20233;-60
2021/06/20 07:05:37;;;;;;;24.80;23.07;;;;;;;;;;5065407;28;20888;-61
2021/06/20 07:08:03;;;;;;;24.73;22.83;;;;;;;;;;5067639;28;20663;-61
2021/06/20 07:10:28;;;;;;;25.47;23.67;;;;;;;;;;5061680;28;20224;-61
2021/06/20 07:12:53;;;;;;;24.33;22.50;;;;;;;;;;5060646;28;20317;-61
2021/06/20 07:15:19;;;;;;;23.97;22.17;;;;;;;;;;5066113;28;20235;-61
2021/06/20 07:17:44;;;;;;;24.70;22.67;;;;;;;;;;5067459;28;20644;-61
2021/06/20 07:20:14;;;;;;;26.83;24.93;;;;;;;;;;5060955;28;20311;-61
2021/06/20 07:22:40;;;;;;;27.03;25.03;;;;;;;;;;5060060;28;20225;-62
2021/06/20 07:25:06;;;;;;;26.60;24.70;;;;;;;;;;5065955;28;20468;-61
2021/06/20 07:27:34;;;;;;;25.83;24.13;;;;;;;;;;5054919;28;20248;-61
2021/06/20 07:29:59;;;;;;;31.10;28.50;;;;;;;;;;5064744;28;20312;-60
2021/06/20 07:32:25;;;;;;;28.40;26.30;;;;;;;;;;5067101;28;20561;-61
2021/06/20 07:34:51;;;;;;;28.03;25.67;;;;;;;;;;5051367;28;20277;-60
2021/06/20 07:37:16;;;;;;;27.43;25.53;;;;;;;;;;5059955;28;20225;-62
2021/06/20 07:39:42;;;;;;;27.10;25.10;;;;;;;;;;5063697;28;20470;-61
2021/06/20 07:42:07;;;;;;;36.67;33.70;;;;;;;;;;5066859;28;20237;-61
2021/06/20 07:44:32;;;;;;;28.17;25.87;;;;;;;;;;5061762;28;20306;-60
2021/06/20 07:46:58;;;;;;;23.13;21.53;;;;;;;;;;5060231;28;20303;-60
2021/06/20 07:49:23;;;;;;;24.83;23.13;;;;;;;;;;5064342;28;20275;-61
2021/06/20 07:51:48;;;;;;;24.00;22.43;;;;;;;;;;5066827;28;20224;-60
2021/06/20 07:54:14;;;;;;;24.20;22.57;;;;;;;;;;5062276;28;20536;-60
2021/06/20 07:56:39;;;;;;;22.73;21.10;;;;;;;;;;5059648;28;20248;-61
2021/06/20 07:59:05;;;;;;;22.20;20.70;;;;;;;;;;5065142;28;20319;-61
2021/06/20 08:01:30;;;;;;;22.23;20.73;;;;;;;;;;5066355;28;20239;-61
2021/06/20 08:03:57;;;;;;;28.47;26.63;;;;;;;;;;5061872;28;20227;-60
2021/06/20 08:06:23;;;;;;;29.77;27.67;;;;;;;;;;5059315;28;20244;-60
2021/06/20 08:08:54;;;;;;;27.30;25.40;;;;;;;;;;5065025;28;20927;-60
2021/06/20 08:11:20;;;;;;;27.37;25.40;;;;;;;;;;5066046;28;20468;-60
2021/06/20 08:13:45;;;;;;;27.63;25.40;;;;;;;;;;5062155;28;20459;-60
2021/06/20 08:16:10;;;;;;;27.80;25.90;;;;;;;;;;5059932;28;20654;-60
2021/06/20 08:18:36;;;;;;;29.13;27.00;;;;;;;;;;5063925;28;20224;-60
2021/06/20 08:21:01;;;;;;;26.87;25.17;;;;;;;;;;5066555;28;20720;-61
2021/06/20 08:23:26;;;;;;;27.00;25.10;;;;;;;;;;5061738;28;20228;-61
2021/06/20 08:25:52;;;;;;;27.33;25.13;;;;;;;;;;5057856;28;20229;-60
2021/06/20 08:28:17;;;;;;;24.50;22.80;;;;;;;;;;5061895;28;20224;-60
2021/06/20 08:30:42;;;;;;;25.10;23.40;;;;;;;;;;5059287;28;20300;-60
2021/06/20 08:33:08;;;;;;;25.70;24.10;;;;;;;;;;5059595;28;20250;-60
2021/06/20 08:35:33;;;;;;;24.87;23.03;;;;;;;;;;5060924;28;20225;-61
2021/06/20 08:37:58;;;;;;;22.77;21.37;;;;;;;;;;5061860;28;20252;-60
2021/06/20 08:40:23;;;;;;;26.80;24.80;;;;;;;;;;5063167;28;20233;-62
2021/06/20 08:42:49;;;;;;;26.13;24.23;;;;;;;;;;5067926;28;20580;-60
2021/06/20 08:45:15;;;;;;;28.73;26.73;;;;;;;;;;5070364;28;20327;-60
2021/06/20 08:47:41;;;;;;;27.90;25.70;;;;;;;;;;5069269;28;20232;-61
2021/06/20 08:50:07;;;;;;;24.30;22.50;;;;;;;;;;5069718;28;20473;-60
2021/06/20 08:52:34;;;;;;;22.63;21.07;;;;;;;;;;5063634;28;20461;-62
2021/06/20 08:55:04;;;;;;;23.77;22.23;;;;;;;;;;5062189;28;20809;-60
2021/06/20 08:57:48;;;;;;;22.77;21.27;;;;;;;;;;5068483;28;20790;-60
2021/06/20 09:00:18;;;;;;;27.43;25.50;;;;;;;;;;5069857;28;20954;-62
2021/06/20 09:02:58;;;;;;;33.70;31.17;;;;;;;;;;5067310;28;20447;-61
2021/06/20 09:05:23;;;;;;;24.53;22.80;;;;;;;;;;5062383;28;20497;-62
2021/06/20 09:07:48;;;;;;;24.30;22.60;;;;;;;;;;5063784;28;20554;-61
2021/06/20 09:10:15;;;;;;;27.73;25.83;;;;;;;;;;5069759;28;20229;-61
2021/06/20 09:12:47;;;;;;;29.30;27.20;;;;;;;;;;5068817;28;20303;-61
2021/06/20 09:15:14;;;;;;;24.37;22.77;;;;;;;;;;5049891;28;20459;-60
2021/06/20 09:17:40;;;;;;;22.53;20.73;;;;;;;;;;5062305;28;20846;-61
2021/06/20 09:20:06;;;;;;;20.90;19.37;;;;;;;;;;5068291;28;20542;-60
2021/06/20 09:22:32;;;;;;;19.90;18.40;;;;;;;;;;5068874;28;20235;-60
2021/06/20 09:25:02;;;;;;;18.30;17.07;;;;;;;;;;5048973;28;20462;-61
2021/06/20 09:27:27;;;;;;;18.40;17.20;;;;;;;;;;5048739;28;20217;-60
2021/06/20 09:29:52;;;;;;;17.57;16.30;;;;;;;;;;5067502;28;20482;-61
2021/06/20 09:32:18;;;;;;;17.53;16.30;;;;;;;;;;5068743;28;20228;-60
2021/06/20 09:34:45;;;;;;;16.17;14.87;;;;;;;;;;5064194;28;20244;-61
2021/06/20 09:37:12;;;;;;;16.87;15.43;;;;;;;;;;5062308;28;20217;-60
2021/06/20 09:39:37;;;;;;;14.93;13.73;;;;;;;;;;5067326;28;21039;-60
2021/06/20 09:42:06;;;;;;;13.63;12.57;;;;;;;;;;5068967;28;20542;-60
2021/06/20 09:44:42;;;;;;;14.17;13.13;;;;;;;;;;5063002;28;20711;-59
2021/06/20 09:47:12;;;;;;;14.07;12.93;;;;;;;;;;5061108;28;20804;-60
2021/06/20 09:49:38;;;;;;;13.33;12.17;;;;;;;;;;5064298;28;20467;-61
2021/06/20 09:52:05;;;;;;;15.90;14.60;;;;;;;;;;5068709;28;20464;-61
2021/06/20 09:54:31;;;;;;;14.30;13.20;;;;;;;;;;5065601;28;20459;-61
2021/06/20 09:56:57;;;;;;;14.53;13.30;;;;;;;;;;5061673;28;20455;-61
2021/06/20 09:59:28;;;;;;;14.50;13.50;;;;;;;;;;5065165;28;20460;-61
2021/06/20 10:01:53;;;;;;;16.10;14.87;;;;;;;;;;5067659;28;20463;-62
2021/06/20 10:04:18;;;;;;;15.30;13.93;;;;;;;;;;5065773;28;20484;-61
2021/06/20 10:06:44;;;;;;;15.70;14.40;;;;;;;;;;5061298;28;20546;-61
2021/06/20 10:09:09;;;;;;;14.50;13.23;;;;;;;;;;5064409;28;20217;-61
2021/06/20 10:11:35;;;;;;;13.93;12.70;;;;;;;;;;5067991;28;20225;-61
2021/06/20 10:14:00;;;;;;;14.07;12.90;;;;;;;;;;5065268;28;20353;-61
2021/06/20 10:16:27;;;;;;;13.57;12.40;;;;;;;;;;5061569;28;20659;-61
2021/06/20 10:19:15;;;;;;;13.67;12.67;;;;;;;;;;5064185;28;20274;-60
2021/06/20 10:21:44;;;;;;;14.20;12.77;;;;;;;;;;5047865;28;20842;-60
2021/06/20 10:24:12;;;;;;;15.03;13.53;;;;;;;;;;5060360;28;20460;-60
2021/06/20 10:26:42;;;;;;;14.53;13.13;;;;;;;;;;5065929;28;20454;-60
2021/06/20 10:29:16;;;;;;;14.67;13.37;;;;;;;;;;5068253;28;20463;-61
2021/06/20 10:31:41;;;;;;;12.90;11.90;;;;;;;;;;5064221;28;20779;-61
2021/06/20 10:34:21;;;;;;;14.40;13.10;;;;;;;;;;5046403;28;20509;-61
2021/06/20 10:36:49;;;;;;;14.10;12.90;;;;;;;;;;5065823;28;20221;-60
2021/06/20 10:39:15;;;;;;;14.13;13.03;;;;;;;;;;5060024;28;20470;-60
2021/06/20 10:41:40;;;;;;;15.40;14.07;;;;;;;;;;5062627;28;20479;-60
2021/06/20 10:44:06;;;;;;;15.83;14.57;;;;;;;;;;5066814;28;20548;-60
2021/06/20 10:46:31;;;;;;;14.73;13.27;;;;;;;;;;5065816;28;20266;-60
2021/06/20 10:48:58;;;;;;;14.93;13.80;;;;;;;;;;5061179;28;20231;-61
2021/06/20 10:51:23;;;;;;;14.90;13.70;;;;;;;;;;5062439;28;20244;-60
2021/06/20 10:53:49;;;;;;;16.30;13.20;;;;;;;;;;5067310;28;20502;-61
2021/06/20 10:56:22;;;;;;;14.20;13.10;;;;;;;;;;5065702;28;20224;-60
2021/06/20 10:58:52;;;;;;;15.77;14.17;;;;;;;;;;5060256;28;20216;-61
2021/06/20 11:01:19;;;;;;;15.50;14.10;;;;;;;;;;5060622;28;20471;-61
2021/06/20 11:03:59;;;;;;;16.07;12.63;;;;;;;;;;5067189;28;20941;-61
2021/06/20 11:06:26;;;;;;;15.60;14.03;;;;;;;;;;5067443;28;20490;-60
2021/06/20 11:08:59;;;;;;;15.53;14.13;;;;;;;;;;5062432;28;20470;-59
2021/06/20 11:11:44;;;;;;;15.97;14.30;;;;;;;;;;5060994;28;20979;-60
2021/06/20 11:14:09;;;;;;;15.53;14.03;;;;;;;;;;5061865;28;20475;-60
2021/06/20 11:16:40;;;;;;;15.60;14.10;;;;;;;;;;5066625;28;20463;-61
2021/06/20 11:19:22;;;;;;;16.23;13.77;;;;;;;;;;5066764;28;20235;-61
2021/06/20 11:21:47;;;;;;;13.50;12.07;;;;;;;;;;5050484;28;20447;-61
2021/06/20 11:24:15;;;;;;;13.45;12.18;;;;;;;;;;5060426;28;20518;-61
2021/06/20 11:27:00;;;;;;;15.57;12.10;;;;;;;;;;5065135;28;20220;-61
2021/06/20 11:29:37;;;;;;;13.57;11.37;;;;;;;;;;5067385;28;20460;-61
2021/06/20 11:32:03;;;;;;;16.77;11.00;;;;;;;;;;5066629;28;20542;-60
2021/06/20 11:34:29;;;;;;;17.23;11.90;;;;;;;;;;5048870;28;20482;-60
2021/06/20 11:36:54;;;;;;;16.93;11.40;;;;;;;;;;5061554;28;20227;-61
2021/06/20 11:39:19;;;;;;;14.67;10.00;;;;;;;;;;5067447;28;20261;-63
2021/06/20 11:41:47;;;;;;;13.80;12.03;;;;;;;;;;5067130;28;20600;-63
2021/06/20 11:44:14;;;;;;;16.17;10.60;;;;;;;;;;5061384;28;20670;-63
2021/06/20 11:46:42;;;;;;;12.43;11.00;;;;;;;;;;5062629;28;20466;-63
2021/06/20 11:49:12;;;;;;;11.47;10.37;;;;;;;;;;5068695;28;20809;-63
2021/06/20 11:51:43;;;;;;;11.63;10.50;;;;;;;;;;5066322;28;20462;-63
2021/06/20 11:54:14;;;;;;;15.40;10.30;;;;;;;;;;5061611;28;20454;-63
2021/06/20 11:56:41;;;;;;;15.00;9.80;;;;;;;;;;5061517;28;20797;-63
2021/06/20 11:59:07;;;;;;;12.03;9.47;;;;;;;;;;5068119;28;20478;-64
2021/06/20 12:01:40;;;;;;;12.87;8.87;;;;;;;;;;5068927;28;20469;-63
2021/06/20 12:04:05;;;;;;;12.83;9.17;;;;;;;;;;5064118;28;20458;-64
2021/06/20 12:06:30;;;;;;;13.70;9.30;;;;;;;;;;5062420;28;20233;-63
2021/06/20 12:08:57;;;;;;;9.70;8.27;;;;;;;;;;5065751;28;20563;-64
2021/06/20 12:11:32;;;;;;;12.33;10.60;;;;;;;;;;5067044;28;20670;-63
2021/06/20 12:13:57;;;;;;;13.77;10.30;;;;;;;;;;5066316;28;20557;-63
2021/06/20 12:16:22;;;;;;;13.93;10.33;;;;;;;;;;5063976;28;20459;-63
2021/06/20 12:18:48;;;;;;;12.53;10.03;;;;;;;;;;5067737;28;20217;-63
2021/06/20 12:21:30;;;;;;;10.63;9.63;;;;;;;;;;5070388;28;20217;-63
2021/06/20 12:23:57;;;;;;;13.40;10.60;;;;;;;;;;5067888;28;20239;-62
2021/06/20 12:26:29;;;;;;;13.80;11.17;;;;;;;;;;5058963;28;20475;-63
2021/06/20 12:28:55;;;;;;;11.50;10.40;;;;;;;;;;5069607;28;20504;-63
2021/06/20 12:31:21;;;;;;;14.30;11.30;;;;;;;;;;5064744;28;20462;-63
2021/06/20 12:33:46;;;;;;;11.90;10.63;;;;;;;;;;5053566;28;20460;-63
2021/06/20 12:36:12;;;;;;;13.60;9.93;;;;;;;;;;5064760;28;20216;-63
2021/06/20 12:38:38;;;;;;;10.70;9.60;;;;;;;;;;5064651;28;20554;-64
2021/06/20 12:41:04;;;;;;;16.87;10.50;;;;;;;;;;5071381;28;20471;-64
2021/06/20 12:43:29;;;;;;;12.43;10.23;;;;;;;;;;5072073;28;20561;-63
2021/06/20 12:46:00;;;;;;;12.20;10.10;;;;;;;;;;5064983;28;20238;-63
2021/06/20 12:48:25;;;;;;;11.63;9.67;;;;;;;;;;5066270;28;20220;-63
2021/06/20 12:50:55;;;;;;;15.67;10.40;;;;;;;;;;5077349;28;20466;-64
2021/06/20 12:53:32;;;;;;;13.10;9.80;;;;;;;;;;5067501;28;20235;-63
2021/06/20 12:55:57;;;;;;;10.67;9.57;;;;;;;;;;5053424;28;20450;-64
2021/06/20 12:58:23;;;;;;;12.07;9.57;;;;;;;;;;5065604;28;20773;-63
2021/06/20 13:01:05;;;;;;;14.23;9.77;;;;;;;;;;5071275;28;20244;-63
2021/06/20 13:03:32;;;;;;;12.47;8.93;;;;;;;;;;5071598;28;20212;-63
2021/06/20 13:06:01;;;;;;;9.83;8.97;;;;;;;;;;5066136;28;20461;-63
2021/06/20 13:08:31;;;;;;;12.10;9.20;;;;;;;;;;5065853;28;20459;-63
2021/06/20 13:10:57;;;;;;;13.83;9.77;;;;;;;;;;5070285;28;20455;-63
2021/06/20 13:13:22;;;;;;;9.37;8.30;;;;;;;;;;5071081;28;20537;-62
2021/06/20 13:15:48;;;;;;;10.90;9.90;;;;;;;;;;5065744;28;20253;-63
2021/06/20 13:18:13;;;;;;;10.70;9.60;;;;;;;;;;5064464;28;20234;-62
2021/06/20 13:20:39;;;;;;;11.80;9.30;;;;;;;;;;5069656;28;20217;-63
2021/06/20 13:23:04;;;;;;;10.20;9.20;;;;;;;;;;5070551;28;20678;-63
2021/06/20 13:25:30;;;;;;;9.43;8.53;;;;;;;;;;5064931;28;20232;-63
2021/06/20 13:27:55;;;;;;;10.43;9.40;;;;;;;;;;5051528;28;20222;-63
2021/06/20 13:30:22;;;;;;;10.00;8.97;;;;;;;;;;5066671;28;20358;-63
2021/06/20 13:32:47;;;;;;;10.57;9.20;;;;;;;;;;5068085;28;20224;-62
2021/06/20 13:35:14;;;;;;;10.43;9.43;;;;;;;;;;5051221;28;20524;-63
2021/06/20 13:37:40;;;;;;;9.80;8.60;;;;;;;;;;5072989;28;20243;-62
2021/06/20 13:40:08;;;;;;;9.53;8.63;;;;;;;;;;5070846;28;20458;-62
2021/06/20 13:42:33;;;;;;;9.90;9.00;;;;;;;;;;5064980;28;20466;-63
2021/06/20 13:44:59;;;;;;;10.40;8.30;;;;;;;;;;5064966;28;20448;-63
2021/06/20 13:47:24;;;;;;;8.40;7.50;;;;;;;;;;5070468;28;20231;-62
2021/06/20 13:49:49;;;;;;;10.37;8.00;;;;;;;;;;5069302;28;20231;-63
2021/06/20 13:52:15;;;;;;;12.53;9.77;;;;;;;;;;5064512;28;20216;-62
2021/06/20 13:54:40;;;;;;;8.53;7.73;;;;;;;;;;5066337;28;20224;-63
2021/06/20 13:57:05;;;;;;;7.93;7.13;;;;;;;;;;5071614;28;20270;-63
2021/06/20 13:59:31;;;;;;;9.03;8.20;;;;;;;;;;5068238;28;20565;-64
2021/06/20 14:01:56;;;;;;;11.20;8.40;;;;;;;;;;5062437;28;20228;-63
2021/06/20 14:04:21;;;;;;;9.27;8.37;;;;;;;;;;5066730;28;20304;-63
2021/06/20 14:06:47;;;;;;;10.43;9.43;;;;;;;;;;5069697;28;20213;-64
2021/06/20 14:09:13;;;;;;;17.87;9.97;;;;;;;;;;5064021;28;20249;-63
2021/06/20 14:11:39;;;;;;;9.63;8.63;;;;;;;;;;5061556;28;20682;-62
2021/06/20 14:14:05;;;;;;;11.63;8.37;;;;;;;;;;5065371;28;21320;-63
2021/06/20 14:16:31;;;;;;;9.83;8.80;;;;;;;;;;5068224;28;20947;-63